sensor_id;sensor_type;location;lat;lon;timestamp;pressure;altitude;pressure_sealevel;temperature;humidity
31483;BME280;18103;52.246;8.052;2023-01-30T00:00:53;100419.25;;;2.99;87.54
31483;BME280;18103;52.246;8.052;2023-01-30T00:03:20;100422.53;;;3.04;87.50
31483;BME280;18103;52.246;8.052;2023-01-30T00:05:46;100412.84;;;3.06;87.58
31483;BME280;18103;52.246;8.052;2023-01-30T00:08:12;100394.75;;;3.03;87.79
31483;BME280;18103;52.246;8.052;2023-01-30T00:10:37;100396.44;;;3.04;88.02
31483;BME280;18103;52.246;8.052;2023-01-30T00:13:02;100382.34;;;3.08;87.94
31483;BME280;18103;52.246;8.052;2023-01-30T00:15:28;100387.56;;;3.08;88.09
31483;BME280;18103;52.246;8.052;2023-01-30T00:17:53;100403.06;;;3.11;87.72
31483;BME280;18103;52.246;8.052;2023-01-30T00:20:18;100400.38;;;3.13;87.86
31483;BME280;18103;52.246;8.052;2023-01-30T00:22:44;100401.22;;;3.13;87.88
31483;BME280;18103;52.246;8.052;2023-01-30T00:25:09;100376.91;;;3.13;88.18
31483;BME280;18103;52.246;8.052;2023-01-30T00:27:34;100376.41;;;3.23;87.95
31483;BME280;18103;52.246;8.052;2023-01-30T00:30:00;100374.78;;;3.21;87.74
31483;BME280;18103;52.246;8.052;2023-01-30T00:32:28;100365.09;;;3.23;88.04
31483;BME280;18103;52.246;8.052;2023-01-30T00:34:53;100358.22;;;3.22;88.00
31483;BME280;18103;52.246;8.052;2023-01-30T00:37:19;100368.66;;;3.22;88.25
31483;BME280;18103;52.246;8.052;2023-01-30T00:39:44;100353.47;;;3.30;87.90
31483;BME280;18103;52.246;8.052;2023-01-30T00:42:10;100357.84;;;3.30;87.65
31483;BME280;18103;52.246;8.052;2023-01-30T00:44:53;100358.69;;;3.30;88.50
31483;BME280;18103;52.246;8.052;2023-01-30T00:47:37;100351.56;;;3.34;88.43
31483;BME280;18103;52.246;8.052;2023-01-30T00:50:03;100346.25;;;3.35;88.25
31483;BME280;18103;52.246;8.052;2023-01-30T00:52:29;100342.81;;;3.35;88.35
31483;BME280;18103;52.246;8.052;2023-01-30T00:54:54;100342.13;;;3.31;88.78
31483;BME280;18103;52.246;8.052;2023-01-30T00:57:20;100322.03;;;3.33;88.42
31483;BME280;18103;52.246;8.052;2023-01-30T00:59:45;100311.59;;;3.33;89.21
31483;BME280;18103;52.246;8.052;2023-01-30T01:02:10;100291.25;;;3.40;89.03
31483;BME280;18103;52.246;8.052;2023-01-30T01:04:36;100279.06;;;3.40;88.72
31483;BME280;18103;52.246;8.052;2023-01-30T01:07:11;100272.22;;;3.38;89.29
31483;BME280;18103;52.246;8.052;2023-01-30T01:09:37;100262.53;;;3.40;89.25
31483;BME280;18103;52.246;8.052;2023-01-30T01:12:03;100262.53;;;3.40;89.63
31483;BME280;18103;52.246;8.052;2023-01-30T01:14:28;100256.19;;;3.46;89.47
31483;BME280;18103;52.246;8.052;2023-01-30T01:16:53;100253.97;;;3.38;89.68
31483;BME280;18103;52.246;8.052;2023-01-30T01:19:19;100247.75;;;3.40;89.82
31483;BME280;18103;52.246;8.052;2023-01-30T01:21:44;100246.38;;;3.33;90.19
31483;BME280;18103;52.246;8.052;2023-01-30T01:24:12;100243.38;;;3.41;90.15
31483;BME280;18103;52.246;8.052;2023-01-30T01:26:37;100243.38;;;3.41;90.31
31483;BME280;18103;52.246;8.052;2023-01-30T01:29:03;100250.44;;;3.39;90.67
31483;BME280;18103;52.246;8.052;2023-01-30T01:31:29;100245.69;;;3.47;90.42
31483;BME280;18103;52.246;8.052;2023-01-30T01:33:54;100235.38;;;3.44;90.54
31483;BME280;18103;52.246;8.052;2023-01-30T01:36:20;100242.44;;;3.42;90.74
31483;BME280;18103;52.246;8.052;2023-01-30T01:38:45;100243.28;;;3.42;91.06
31483;BME280;18103;52.246;8.052;2023-01-30T01:41:12;100235.25;;;3.47;91.01
31483;BME280;18103;52.246;8.052;2023-01-30T01:46:39;100221.19;;;3.50;91.23
31483;BME280;18103;52.246;8.052;2023-01-30T01:49:21;100216.56;;;3.55;91.13
31483;BME280;18103;52.246;8.052;2023-01-30T01:54:37;100215.75;;;3.54;91.39
31483;BME280;18103;52.246;8.052;2023-01-30T01:57:07;100209.28;;;3.62;91.12
31483;BME280;18103;52.246;8.052;2023-01-30T01:59:41;100192.78;;;3.61;91.49
31483;BME280;18103;52.246;8.052;2023-01-30T02:02:10;100191.09;;;3.60;91.71
31483;BME280;18103;52.246;8.052;2023-01-30T02:04:39;100189.00;;;3.67;91.55
31483;BME280;18103;52.246;8.052;2023-01-30T02:07:24;100187.31;;;3.66;91.52
31483;BME280;18103;52.246;8.052;2023-01-30T02:09:50;100184.72;;;3.66;91.78
31483;BME280;18103;52.246;8.052;2023-01-30T02:12:16;100173.78;;;3.75;91.37
31483;BME280;18103;52.246;8.052;2023-01-30T02:14:42;100164.50;;;3.69;92.05
31483;BME280;18103;52.246;8.052;2023-01-30T02:17:08;100165.00;;;3.76;92.00
31483;BME280;18103;52.246;8.052;2023-01-30T02:41:27;100133.88;;;4.05;92.42
31483;BME280;18103;52.246;8.052;2023-01-30T02:49:07;100108.38;;;4.10;93.03
31483;BME280;18103;52.246;8.052;2023-01-30T02:51:36;100116.53;;;4.20;92.93
31483;BME280;18103;52.246;8.052;2023-01-30T02:54:06;100089.56;;;4.19;92.99
31483;BME280;18103;52.246;8.052;2023-01-30T02:56:49;100097.13;;;4.24;92.81
31483;BME280;18103;52.246;8.052;2023-01-30T02:59:28;100100.50;;;4.26;93.21
31483;BME280;18103;52.246;8.052;2023-01-30T03:07:44;100076.53;;;4.34;93.28
31483;BME280;18103;52.246;8.052;2023-01-30T03:10:42;100080.53;;;4.41;92.85
31483;BME280;18103;52.246;8.052;2023-01-30T03:18:36;100081.56;;;4.53;93.38
31483;BME280;18103;52.246;8.052;2023-01-30T03:21:05;100061.59;;;4.52;93.37
31483;BME280;18103;52.246;8.052;2023-01-30T03:23:30;100063.19;;;4.54;93.35
31483;BME280;18103;52.246;8.052;2023-01-30T03:25:56;100064.69;;;4.58;93.42
31483;BME280;18103;52.246;8.052;2023-01-30T03:28:22;100046.41;;;4.58;93.46
31483;BME280;18103;52.246;8.052;2023-01-30T03:30:48;100038.56;;;4.58;93.63
31483;BME280;18103;52.246;8.052;2023-01-30T03:33:13;100041.75;;;4.63;93.47
31483;BME280;18103;52.246;8.052;2023-01-30T03:35:39;100015.59;;;4.63;93.36
31483;BME280;18103;52.246;8.052;2023-01-30T03:38:04;100021.56;;;4.66;93.23
31483;BME280;18103;52.246;8.052;2023-01-30T03:40:30;100022.34;;;4.68;93.35
31483;BME280;18103;52.246;8.052;2023-01-30T03:42:56;100025.78;;;4.68;93.12
31483;BME280;18103;52.246;8.052;2023-01-30T03:45:21;100027.97;;;4.76;93.29
31483;BME280;18103;52.246;8.052;2023-01-30T03:47:46;100014.03;;;4.75;93.42
31483;BME280;18103;52.246;8.052;2023-01-30T03:50:12;100005.25;;;4.76;93.39
31483;BME280;18103;52.246;8.052;2023-01-30T03:52:37;100014.97;;;4.74;93.70
31483;BME280;18103;52.246;8.052;2023-01-30T03:55:03;100003.56;;;4.75;93.42
31483;BME280;18103;52.246;8.052;2023-01-30T03:57:29;100013.94;;;4.77;93.87
31483;BME280;18103;52.246;8.052;2023-01-30T03:59:54;100011.16;;;4.80;93.62
31483;BME280;18103;52.246;8.052;2023-01-30T04:02:19;100001.53;;;4.80;93.41
31483;BME280;18103;52.246;8.052;2023-01-30T04:04:48;100005.44;;;4.88;93.15
31483;BME280;18103;52.246;8.052;2023-01-30T04:07:13;100003.03;;;4.85;93.45
31483;BME280;18103;52.246;8.052;2023-01-30T04:09:39;99999.59;;;4.84;93.33
31483;BME280;18103;52.246;8.052;2023-01-30T04:12:05;99991.53;;;4.87;93.63
31483;BME280;18103;52.246;8.052;2023-01-30T04:14:30;100007.22;;;4.87;93.61
31483;BME280;18103;52.246;8.052;2023-01-30T04:16:56;100008.16;;;4.86;93.38
31483;BME280;18103;52.246;8.052;2023-01-30T04:19:21;99991.44;;;4.89;93.63
31483;BME280;18103;52.246;8.052;2023-01-30T04:21:46;100000.03;;;4.91;93.23
31483;BME280;18103;52.246;8.052;2023-01-30T04:24:12;100012.28;;;4.90;93.52
31483;BME280;18103;52.246;8.052;2023-01-30T04:26:37;100004.34;;;4.92;93.52
31483;BME280;18103;52.246;8.052;2023-01-30T04:29:02;100008.53;;;4.94;93.58
31483;BME280;18103;52.246;8.052;2023-01-30T04:31:28;100015.47;;;4.95;93.50
31483;BME280;18103;52.246;8.052;2023-01-30T04:33:53;100018.91;;;4.96;93.57
31483;BME280;18103;52.246;8.052;2023-01-30T04:36:18;100011.88;;;4.96;93.61
31483;BME280;18103;52.246;8.052;2023-01-30T04:38:44;100010.97;;;4.97;93.68
31483;BME280;18103;52.246;8.052;2023-01-30T04:41:09;100006.50;;;5.00;93.80
31483;BME280;18103;52.246;8.052;2023-01-30T04:43:35;100002.94;;;5.01;93.81
31483;BME280;18103;52.246;8.052;2023-01-30T04:46:00;99999.19;;;5.05;93.55
31483;BME280;18103;52.246;8.052;2023-01-30T04:48:25;100004.25;;;5.08;93.80
31483;BME280;18103;52.246;8.052;2023-01-30T04:50:52;100007.72;;;5.08;93.68
31483;BME280;18103;52.246;8.052;2023-01-30T04:53:19;99995.09;;;5.15;93.60
31483;BME280;18103;52.246;8.052;2023-01-30T04:55:45;100002.38;;;5.10;93.82
31483;BME280;18103;52.246;8.052;2023-01-30T04:58:11;99990.88;;;5.12;93.76
31483;BME280;18103;52.246;8.052;2023-01-30T05:00:37;99997.81;;;5.13;94.01
31483;BME280;18103;52.246;8.052;2023-01-30T05:03:02;99989.97;;;5.13;94.05
31483;BME280;18103;52.246;8.052;2023-01-30T05:05:28;99989.47;;;5.21;94.00
31483;BME280;18103;52.246;8.052;2023-01-30T05:07:53;99988.75;;;5.19;93.91
31483;BME280;18103;52.246;8.052;2023-01-30T05:10:19;99990.22;;;5.23;94.01
31483;BME280;18103;52.246;8.052;2023-01-30T05:12:45;99987.69;;;5.22;94.00
31483;BME280;18103;52.246;8.052;2023-01-30T05:15:11;100004.25;;;5.22;94.07
31483;BME280;18103;52.246;8.052;2023-01-30T05:17:37;100005.63;;;5.28;94.24
31483;BME280;18103;52.246;8.052;2023-01-30T05:20:04;100012.38;;;5.32;94.11
31483;BME280;18103;52.246;8.052;2023-01-30T05:22:30;100009.66;;;5.34;93.65
31483;BME280;18103;52.246;8.052;2023-01-30T05:24:56;99996.66;;;5.32;92.41
31483;BME280;18103;52.246;8.052;2023-01-30T05:27:21;100010.88;;;5.28;91.98
31483;BME280;18103;52.246;8.052;2023-01-30T05:29:46;100012.00;;;5.24;92.36
31483;BME280;18103;52.246;8.052;2023-01-30T05:32:16;100016.19;;;5.26;92.48
31483;BME280;18103;52.246;8.052;2023-01-30T05:34:42;100019.09;;;5.22;92.18
31483;BME280;18103;52.246;8.052;2023-01-30T05:37:07;100023.13;;;5.27;92.37
31483;BME280;18103;52.246;8.052;2023-01-30T05:39:33;100010.03;;;5.27;92.54
31483;BME280;18103;52.246;8.052;2023-01-30T05:41:58;100000.00;;;5.34;92.31
31483;BME280;18103;52.246;8.052;2023-01-30T05:44:24;99991.91;;;5.39;92.70
31483;BME280;18103;52.246;8.052;2023-01-30T05:46:49;100004.22;;;5.37;92.71
31483;BME280;18103;52.246;8.052;2023-01-30T05:49:15;100005.81;;;5.39;92.81
31483;BME280;18103;52.246;8.052;2023-01-30T05:51:41;99997.75;;;5.42;92.82
31483;BME280;18103;52.246;8.052;2023-01-30T05:54:06;99994.00;;;5.46;92.39
31483;BME280;18103;52.246;8.052;2023-01-30T05:56:32;99993.09;;;5.47;92.48
31483;BME280;18103;52.246;8.052;2023-01-30T05:58:59;99982.63;;;5.47;92.54
31483;BME280;18103;52.246;8.052;2023-01-30T06:01:25;99992.78;;;5.52;92.31
31483;BME280;18103;52.246;8.052;2023-01-30T06:03:51;99994.47;;;5.53;92.28
31483;BME280;18103;52.246;8.052;2023-01-30T06:06:16;100007.47;;;5.55;92.30
31483;BME280;18103;52.246;8.052;2023-01-30T06:08:42;99995.09;;;5.57;92.34
31483;BME280;18103;52.246;8.052;2023-01-30T06:11:10;100002.69;;;5.61;92.18
31483;BME280;18103;52.246;8.052;2023-01-30T06:13:37;100003.97;;;5.69;91.92
31483;BME280;18103;52.246;8.052;2023-01-30T06:16:03;100004.75;;;5.56;91.85
31483;BME280;18103;52.246;8.052;2023-01-30T06:18:29;100009.41;;;5.65;91.70
31483;BME280;18103;52.246;8.052;2023-01-30T06:20:54;100015.78;;;5.61;91.82
31483;BME280;18103;52.246;8.052;2023-01-30T06:23:20;100019.97;;;5.64;91.61
31483;BME280;18103;52.246;8.052;2023-01-30T06:25:48;100022.88;;;5.59;91.22
31483;BME280;18103;52.246;8.052;2023-01-30T06:28:15;100027.53;;;5.69;91.33
31483;BME280;18103;52.246;8.052;2023-01-30T06:30:41;100028.47;;;5.68;91.08
31483;BME280;18103;52.246;8.052;2023-01-30T06:33:07;100032.88;;;5.67;91.42
31483;BME280;18103;52.246;8.052;2023-01-30T06:35:32;100035.19;;;5.72;91.02
31483;BME280;18103;52.246;8.052;2023-01-30T06:37:58;100035.59;;;5.65;90.89
31483;BME280;18103;52.246;8.052;2023-01-30T06:40:23;100040.84;;;5.65;90.48
31483;BME280;18103;52.246;8.052;2023-01-30T06:42:49;100033.69;;;5.68;89.87
31483;BME280;18103;52.246;8.052;2023-01-30T06:45:16;100034.31;;;5.58;89.01
31483;BME280;18103;52.246;8.052;2023-01-30T06:47:46;100040.47;;;5.57;88.95
31483;BME280;18103;52.246;8.052;2023-01-30T06:50:13;100048.13;;;5.60;88.37
31483;BME280;18103;52.246;8.052;2023-01-30T06:52:43;100045.81;;;5.56;87.57
31483;BME280;18103;52.246;8.052;2023-01-30T06:55:14;100040.66;;;5.54;87.31
31483;BME280;18103;52.246;8.052;2023-01-30T06:57:40;100056.63;;;5.49;87.59
31483;BME280;18103;52.246;8.052;2023-01-30T07:00:09;100047.19;;;5.47;87.09
31483;BME280;18103;52.246;8.052;2023-01-30T07:02:35;100053.59;;;5.43;86.88
31483;BME280;18103;52.246;8.052;2023-01-30T07:05:01;100052.91;;;5.39;86.93
31483;BME280;18103;52.246;8.052;2023-01-30T07:07:27;100057.84;;;5.44;87.06
31483;BME280;18103;52.246;8.052;2023-01-30T07:09:53;100057.31;;;5.39;86.93
31483;BME280;18103;52.246;8.052;2023-01-30T07:12:18;100056.47;;;5.38;86.57
31483;BME280;18103;52.246;8.052;2023-01-30T07:14:44;100051.53;;;5.34;86.49
31483;BME280;18103;52.246;8.052;2023-01-30T07:17:10;100049.84;;;5.32;86.11
31483;BME280;18103;52.246;8.052;2023-01-30T07:19:35;100063.69;;;5.35;86.12
31483;BME280;18103;52.246;8.052;2023-01-30T07:22:00;100059.38;;;5.34;85.85
31483;BME280;18103;52.246;8.052;2023-01-30T07:24:26;100071.63;;;5.33;85.93
31483;BME280;18103;52.246;8.052;2023-01-30T07:26:51;100067.59;;;5.42;86.17
31483;BME280;18103;52.246;8.052;2023-01-30T07:29:17;100078.53;;;5.34;86.68
31483;BME280;18103;52.246;8.052;2023-01-30T07:31:42;100075.06;;;5.34;86.16
31483;BME280;18103;52.246;8.052;2023-01-30T07:34:07;100063.00;;;5.31;85.88
31483;BME280;18103;52.246;8.052;2023-01-30T07:36:33;100071.25;;;5.25;85.90
31483;BME280;18103;52.246;8.052;2023-01-30T07:38:59;100071.16;;;5.26;85.76
31483;BME280;18103;52.246;8.052;2023-01-30T07:41:26;100089.56;;;5.25;85.82
31483;BME280;18103;52.246;8.052;2023-01-30T07:43:51;100072.06;;;5.25;85.73
31483;BME280;18103;52.246;8.052;2023-01-30T07:46:17;100080.84;;;5.24;85.42
31483;BME280;18103;52.246;8.052;2023-01-30T07:48:43;100071.34;;;5.23;85.02
31483;BME280;18103;52.246;8.052;2023-01-30T07:51:09;100075.72;;;5.23;84.94
31483;BME280;18103;52.246;8.052;2023-01-30T07:53:34;100084.44;;;5.23;85.32
31483;BME280;18103;52.246;8.052;2023-01-30T07:56:08;100080.03;;;5.24;84.94
31483;BME280;18103;52.246;8.052;2023-01-30T07:58:34;100093.19;;;5.22;84.91
31483;BME280;18103;52.246;8.052;2023-01-30T08:01:00;100089.38;;;5.28;85.31
31483;BME280;18103;52.246;8.052;2023-01-30T08:03:25;100087.69;;;5.27;84.18
31483;BME280;18103;52.246;8.052;2023-01-30T08:05:51;100083.38;;;5.26;84.71
31483;BME280;18103;52.246;8.052;2023-01-30T08:08:18;100067.50;;;5.29;84.53
31483;BME280;18103;52.246;8.052;2023-01-30T08:10:44;100081.13;;;5.34;84.93
31483;BME280;18103;52.246;8.052;2023-01-30T08:13:09;100075.38;;;5.29;84.86
31483;BME280;18103;52.246;8.052;2023-01-30T08:15:34;100073.38;;;5.32;85.15
31483;BME280;18103;52.246;8.052;2023-01-30T08:18:01;100070.97;;;5.29;85.07
31483;BME280;18103;52.246;8.052;2023-01-30T08:20:27;100083.03;;;5.32;84.64
31483;BME280;18103;52.246;8.052;2023-01-30T08:22:53;100072.66;;;5.30;84.67
31483;BME280;18103;52.246;8.052;2023-01-30T08:25:19;100072.75;;;5.29;84.68
31483;BME280;18103;52.246;8.052;2023-01-30T08:27:45;100090.97;;;5.30;84.26
31483;BME280;18103;52.246;8.052;2023-01-30T08:30:11;100097.81;;;5.33;84.18
31483;BME280;18103;52.246;8.052;2023-01-30T08:32:36;100092.28;;;5.38;84.40
31483;BME280;18103;52.246;8.052;2023-01-30T08:35:02;100095.63;;;5.40;84.35
31483;BME280;18103;52.246;8.052;2023-01-30T08:37:28;100100.22;;;5.36;83.88
31483;BME280;18103;52.246;8.052;2023-01-30T08:39:53;100104.50;;;5.37;83.54
31483;BME280;18103;52.246;8.052;2023-01-30T08:42:19;100101.88;;;5.37;83.60
31483;BME280;18103;52.246;8.052;2023-01-30T08:44:44;100099.09;;;5.40;83.57
31483;BME280;18103;52.246;8.052;2023-01-30T08:47:09;100115.94;;;5.36;82.60
31483;BME280;18103;52.246;8.052;2023-01-30T08:49:35;100104.34;;;5.40;82.44
31483;BME280;18103;52.246;8.052;2023-01-30T08:52:00;100104.34;;;5.40;82.36
31483;BME280;18103;52.246;8.052;2023-01-30T08:54:25;100073.66;;;5.42;81.25
31483;BME280;18103;52.246;8.052;2023-01-30T08:56:51;100076.19;;;5.44;80.97
31483;BME280;18103;52.246;8.052;2023-01-30T08:59:17;100089.44;;;5.55;81.27
31483;BME280;18103;52.246;8.052;2023-01-30T09:01:42;100086.66;;;5.58;80.76
31483;BME280;18103;52.246;8.052;2023-01-30T09:04:07;100091.50;;;5.64;80.61
31483;BME280;18103;52.246;8.052;2023-01-30T09:06:33;100089.81;;;5.63;80.34
31483;BME280;18103;52.246;8.052;2023-01-30T09:08:59;100102.44;;;5.71;80.29
31483;BME280;18103;52.246;8.052;2023-01-30T09:11:24;100102.44;;;5.71;81.23
31483;BME280;18103;52.246;8.052;2023-01-30T09:13:50;100105.16;;;5.70;80.65
31483;BME280;18103;52.246;8.052;2023-01-30T09:16:15;100104.50;;;5.66;80.79
31483;BME280;18103;52.246;8.052;2023-01-30T09:18:42;100101.06;;;5.65;81.12
31483;BME280;18103;52.246;8.052;2023-01-30T09:21:09;100103.56;;;5.67;81.22
31483;BME280;18103;52.246;8.052;2023-01-30T09:23:35;100110.75;;;5.63;81.35
31483;BME280;18103;52.246;8.052;2023-01-30T09:26:01;100109.09;;;5.62;81.39
31483;BME280;18103;52.246;8.052;2023-01-30T09:28:27;100125.16;;;5.56;80.94
31483;BME280;18103;52.246;8.052;2023-01-30T09:30:55;100110.22;;;5.58;80.18
31483;BME280;18103;52.246;8.052;2023-01-30T09:33:21;100112.09;;;5.56;80.65
31483;BME280;18103;52.246;8.052;2023-01-30T09:35:47;100109.38;;;5.58;80.77
31483;BME280;18103;52.246;8.052;2023-01-30T09:38:12;100114.41;;;5.61;80.78
31483;BME280;18103;52.246;8.052;2023-01-30T09:40:59;100104.91;;;5.60;81.17
31483;BME280;18103;52.246;8.052;2023-01-30T09:51:38;100122.25;;;5.61;80.50
31483;BME280;18103;52.246;8.052;2023-01-30T09:56:32;100118.41;;;5.66;79.80
31483;BME280;18103;52.246;8.052;2023-01-30T09:59:00;100106.38;;;5.64;80.08
31483;BME280;18103;52.246;8.052;2023-01-30T10:04:43;100099.16;;;5.68;80.36
31483;BME280;18103;52.246;8.052;2023-01-30T10:13:03;100098.97;;;5.71;80.67
31483;BME280;18103;52.246;8.052;2023-01-30T10:26:25;100111.72;;;5.62;81.14
31483;BME280;18103;52.246;8.052;2023-01-30T10:31:29;100128.06;;;5.66;80.38
31483;BME280;18103;52.246;8.052;2023-01-30T10:34:01;100125.34;;;5.68;79.80
31483;BME280;18103;52.246;8.052;2023-01-30T10:36:35;100124.03;;;5.75;79.98
31483;BME280;18103;52.246;8.052;2023-01-30T10:39:15;100119.47;;;5.78;79.94
31483;BME280;18103;52.246;8.052;2023-01-30T10:41:54;100124.91;;;5.75;79.31
31483;BME280;18103;52.246;8.052;2023-01-30T10:44:22;100129.16;;;5.76;78.72
31483;BME280;18103;52.246;8.052;2023-01-30T11:05:44;100106.53;;;5.90;77.68
31483;BME280;18103;52.246;8.052;2023-01-30T11:08:22;100089.78;;;5.92;77.45
31483;BME280;18103;52.246;8.052;2023-01-30T11:10:49;100087.66;;;5.99;76.64
31483;BME280;18103;52.246;8.052;2023-01-30T11:15:53;100089.78;;;6.07;77.20
31483;BME280;18103;52.246;8.052;2023-01-30T11:18:20;100073.53;;;6.02;76.73
31483;BME280;18103;52.246;8.052;2023-01-30T11:21:04;100080.41;;;6.03;77.20
31483;BME280;18103;52.246;8.052;2023-01-30T11:23:33;100072.56;;;6.03;76.60
31483;BME280;18103;52.246;8.052;2023-01-30T11:26:00;100070.03;;;6.01;76.32
31483;BME280;18103;52.246;8.052;2023-01-30T11:28:25;100071.53;;;6.05;76.47
31483;BME280;18103;52.246;8.052;2023-01-30T11:31:00;100062.63;;;6.08;76.23
31483;BME280;18103;52.246;8.052;2023-01-30T11:33:34;100071.22;;;6.10;76.18
31483;BME280;18103;52.246;8.052;2023-01-30T11:36:01;100057.75;;;6.16;75.33
31483;BME280;18103;52.246;8.052;2023-01-30T11:38:30;100079.69;;;6.28;74.84
31483;BME280;18103;52.246;8.052;2023-01-30T11:41:22;100085.16;;;6.38;74.14
31483;BME280;18103;52.246;8.052;2023-01-30T11:43:47;100089.13;;;6.58;74.15
31483;BME280;18103;52.246;8.052;2023-01-30T11:46:17;100089.38;;;6.80;72.95
31483;BME280;18103;52.246;8.052;2023-01-30T11:48:53;100104.69;;;6.87;72.42
31483;BME280;18103;52.246;8.052;2023-01-30T11:51:22;100088.22;;;6.84;72.07
31483;BME280;18103;52.246;8.052;2023-01-30T11:54:04;100084.66;;;6.85;71.66
31483;BME280;18103;52.246;8.052;2023-01-30T11:56:40;100092.59;;;6.84;72.10
31483;BME280;18103;52.246;8.052;2023-01-30T11:59:30;100094.09;;;6.88;72.64
31483;BME280;18103;52.246;8.052;2023-01-30T12:02:19;100091.66;;;6.85;72.22
31483;BME280;18103;52.246;8.052;2023-01-30T12:04:46;100085.81;;;6.81;72.86
31483;BME280;18103;52.246;8.052;2023-01-30T12:07:20;100095.56;;;6.79;72.89
31483;BME280;18103;52.246;8.052;2023-01-30T12:09:46;100097.84;;;6.71;73.10
31483;BME280;18103;52.246;8.052;2023-01-30T12:12:30;100097.50;;;6.63;74.53
31483;BME280;18103;52.246;8.052;2023-01-30T12:17:45;100075.34;;;6.41;77.40
31483;BME280;18103;52.246;8.052;2023-01-30T12:23:35;100142.38;;;6.04;81.88
31483;BME280;18103;52.246;8.052;2023-01-30T12:26:20;100170.97;;;5.63;83.66
31483;BME280;18103;52.246;8.052;2023-01-30T12:31:43;100145.53;;;5.22;84.83
31483;BME280;18103;52.246;8.052;2023-01-30T12:34:10;100155.91;;;5.24;84.88
31483;BME280;18103;52.246;8.052;2023-01-30T12:36:47;100147.03;;;5.26;85.29
31483;BME280;18103;52.246;8.052;2023-01-30T12:39:35;100139.53;;;5.20;85.34
31483;BME280;18103;52.246;8.052;2023-01-30T12:45:22;100148.78;;;5.26;86.15
31483;BME280;18103;52.246;8.052;2023-01-30T13:04:12;100169.28;;;5.91;84.13
31483;BME280;18103;52.246;8.052;2023-01-30T13:12:43;100195.78;;;5.87;82.47
31483;BME280;18103;52.246;8.052;2023-01-30T13:15:29;100185.41;;;5.85;82.58
31483;BME280;18103;52.246;8.052;2023-01-30T13:18:12;100195.50;;;5.77;81.31
31483;BME280;18103;52.246;8.052;2023-01-30T13:24:20;100200.94;;;5.74;81.41
31483;BME280;18103;52.246;8.052;2023-01-30T13:26:50;100200.34;;;5.83;80.93
31483;BME280;18103;52.246;8.052;2023-01-30T13:29:25;100196.81;;;5.84;80.84
31483;BME280;18103;52.246;8.052;2023-01-30T13:31:55;100193.91;;;5.89;80.43
31483;BME280;18103;52.246;8.052;2023-01-30T13:34:32;100205.03;;;5.92;79.96
31483;BME280;18103;52.246;8.052;2023-01-30T13:37:11;100207.84;;;5.89;79.98
31483;BME280;18103;52.246;8.052;2023-01-30T13:39:43;100213.25;;;5.86;80.11
31483;BME280;18103;52.246;8.052;2023-01-30T13:45:02;100215.06;;;6.00;81.20
31483;BME280;18103;52.246;8.052;2023-01-30T13:53:13;100242.00;;;6.16;80.66
31483;BME280;18103;52.246;8.052;2023-01-30T13:58:49;100250.63;;;6.19;80.83
31483;BME280;18103;52.246;8.052;2023-01-30T14:01:17;100262.34;;;6.13;79.42
31483;BME280;18103;52.246;8.052;2023-01-30T14:03:42;100259.88;;;6.10;79.38
31483;BME280;18103;52.246;8.052;2023-01-30T14:06:30;100269.53;;;6.09;79.37
31483;BME280;18103;52.246;8.052;2023-01-30T14:08:57;100270.59;;;6.21;79.28
31483;BME280;18103;52.246;8.052;2023-01-30T14:16:41;100280.00;;;6.24;77.87
31483;BME280;18103;52.246;8.052;2023-01-30T14:21:55;100288.25;;;6.32;77.17
31483;BME280;18103;52.246;8.052;2023-01-30T14:24:22;100303.50;;;6.40;77.03
31483;BME280;18103;52.246;8.052;2023-01-30T14:27:01;100304.94;;;6.31;76.76
31483;BME280;18103;52.246;8.052;2023-01-30T14:32:49;100314.56;;;6.30;77.02
31483;BME280;18103;52.246;8.052;2023-01-30T14:37:44;100328.78;;;6.26;76.63
31483;BME280;18103;52.246;8.052;2023-01-30T14:48:27;100333.09;;;6.13;76.42
31483;BME280;18103;52.246;8.052;2023-01-30T14:54:08;100347.13;;;6.12;76.39
31483;BME280;18103;52.246;8.052;2023-01-30T15:04:37;100390.75;;;6.13;76.14
31483;BME280;18103;52.246;8.052;2023-01-30T15:07:28;100390.56;;;6.16;77.03
31483;BME280;18103;52.246;8.052;2023-01-30T15:09:59;100398.72;;;6.11;76.00
31483;BME280;18103;52.246;8.052;2023-01-30T15:15:05;100405.50;;;6.14;76.75
31483;BME280;18103;52.246;8.052;2023-01-30T15:17:40;100404.69;;;6.13;76.51
31483;BME280;18103;52.246;8.052;2023-01-30T15:26:18;100432.00;;;6.09;77.23
31483;BME280;18103;52.246;8.052;2023-01-30T15:31:33;100436.41;;;6.09;77.21
31483;BME280;18103;52.246;8.052;2023-01-30T15:33:58;100448.75;;;6.07;77.36
31483;BME280;18103;52.246;8.052;2023-01-30T15:36:29;100456.88;;;6.02;77.48
31483;BME280;18103;52.246;8.052;2023-01-30T15:38:57;100460.16;;;6.06;77.36
31483;BME280;18103;52.246;8.052;2023-01-30T15:41:24;100465.66;;;6.01;77.63
31483;BME280;18103;52.246;8.052;2023-01-30T15:47:22;100470.72;;;6.04;77.71
31483;BME280;18103;52.246;8.052;2023-01-30T15:52:22;100478.75;;;6.01;78.14
31483;BME280;18103;52.246;8.052;2023-01-30T15:54:55;100485.03;;;5.98;78.18
31483;BME280;18103;52.246;8.052;2023-01-30T15:57:26;100491.13;;;5.99;78.61
31483;BME280;18103;52.246;8.052;2023-01-30T15:59:54;100496.38;;;5.99;78.56
31483;BME280;18103;52.246;8.052;2023-01-30T16:02:27;100504.44;;;5.94;78.42
31483;BME280;18103;52.246;8.052;2023-01-30T16:05:12;100516.50;;;5.97;78.67
31483;BME280;18103;52.246;8.052;2023-01-30T16:07:39;100513.91;;;5.97;78.21
31483;BME280;18103;52.246;8.052;2023-01-30T16:10:31;100529.47;;;6.00;78.48
31483;BME280;18103;52.246;8.052;2023-01-30T16:13:01;100541.88;;;5.96;78.58
31483;BME280;18103;52.246;8.052;2023-01-30T16:15:39;100545.13;;;6.02;78.93
31483;BME280;18103;52.246;8.052;2023-01-30T16:18:09;100543.63;;;5.97;78.81
31483;BME280;18103;52.246;8.052;2023-01-30T16:20:48;100548.69;;;6.01;78.64
31483;BME280;18103;52.246;8.052;2023-01-30T16:23:20;100561.41;;;6.07;78.37
31483;BME280;18103;52.246;8.052;2023-01-30T16:25:47;100559.16;;;6.01;78.40